Waialua, Hawaii
Current Conditions -  °F | °C
As of 6:58 PM on Thursday 30 Oct 2014 (Local Time) from PHHI Reporting Station
Broken Clouds Broken Clouds  
Wind Chill: 75°   Ceiling: 3800
Heat Index: 75°   Visibility: 10mi
Dew Point: 65°   Wind: 3mph
Humidity: 73%   Direction: 40°NE
Pressure: 30.06"   Gusts: NA
Location:  21.57°N, 158.12°W
Report Text: PHHI 310458Z AUTO 04003KT 10SM FEW028 BKN038 BKN047 24/19 A3006 RMK AO2 SLP171 T02380186 $
Loading
Personal Weather Stations






























Interactive Weather Map New forecast layout! Learn more

10-Day Weather Forecast

Advertisements
Track Severe Weather on mobile